createdAt,value
2023-03-06T00:02:23.772Z,100554.31
2023-03-06T00:04:51.016Z,100548.19
2023-03-06T00:07:18.197Z,100545.38
2023-03-06T00:09:45.370Z,100555.22
2023-03-06T00:12:12.567Z,100555.53
2023-03-06T00:14:39.790Z,100557.47
2023-03-06T00:17:07.037Z,100554.09
2023-03-06T00:19:34.272Z,100546.41
2023-03-06T00:22:03.208Z,100546.25
2023-03-06T00:24:30.383Z,100543.41
2023-03-06T00:26:57.704Z,100547.97
2023-03-06T00:29:24.972Z,100552.50
2023-03-06T00:31:52.152Z,100545.19
2023-03-06T00:34:19.400Z,100544.56
2023-03-06T00:36:46.840Z,100543.38
2023-03-06T00:39:14.209Z,100539.78
2023-03-06T00:41:41.399Z,100551.00
2023-03-06T00:44:08.950Z,100543.44
2023-03-06T00:46:36.202Z,100548.75
2023-03-06T00:49:03.720Z,100537.50
2023-03-06T00:51:30.987Z,100529.44
2023-03-06T00:54:06.622Z,100532.28
2023-03-06T00:56:34.022Z,100533.06
2023-03-06T00:59:01.176Z,100535.59
2023-03-06T01:01:29.297Z,100533.72
2023-03-06T01:03:56.466Z,100525.00
2023-03-06T01:06:23.687Z,100522.31
2023-03-06T01:10:04.115Z,100518.00
2023-03-06T01:12:31.220Z,100516.50
2023-03-06T01:14:58.308Z,100517.66
2023-03-06T01:17:25.511Z,100513.00
2023-03-06T01:19:52.646Z,100508.78
2023-03-06T01:22:19.732Z,100508.44
2023-03-06T01:24:46.825Z,100497.91
2023-03-06T01:27:14.490Z,100492.72
2023-03-06T01:29:43.989Z,100502.22
2023-03-06T01:32:11.127Z,100491.66
2023-03-06T01:34:38.196Z,100498.44
2023-03-06T01:37:05.357Z,100495.28
2023-03-06T01:39:32.495Z,100494.88
2023-03-06T01:41:59.581Z,100491.69
2023-03-06T01:44:26.758Z,100490.09
2023-03-06T01:46:53.957Z,100482.59
2023-03-06T01:49:23.923Z,100481.50
2023-03-06T01:52:02.022Z,100482.41
2023-03-06T01:54:34.311Z,100480.94
2023-03-06T01:57:06.996Z,100474.13
2023-03-06T01:59:38.053Z,100482.78
2023-03-06T02:02:08.392Z,100470.69
2023-03-06T02:04:38.917Z,100472.84
2023-03-06T02:07:07.468Z,100466.91
2023-03-06T02:09:36.340Z,100472.00
2023-03-06T02:12:09.087Z,100467.75
2023-03-06T02:14:36.469Z,100470.69
2023-03-06T02:17:04.002Z,100470.63
2023-03-06T02:19:50.483Z,100472.59
2023-03-06T02:22:20.629Z,100472.72
2023-03-06T02:24:58.914Z,100466.22
2023-03-06T02:27:27.073Z,100469.84
2023-03-06T02:29:56.392Z,100470.13
2023-03-06T02:32:23.695Z,100473.63
2023-03-06T02:34:56.774Z,100466.75
2023-03-06T02:37:26.612Z,100463.31
2023-03-06T02:40:02.930Z,100465.22
2023-03-06T02:42:30.243Z,100462.53
2023-03-06T02:45:00.958Z,100464.50
2023-03-06T02:47:28.085Z,100461.91
2023-03-06T02:49:55.480Z,100460.25
2023-03-06T02:52:22.716Z,100466.81
2023-03-06T02:54:49.833Z,100456.78
2023-03-06T02:57:17.484Z,100453.59
2023-03-06T02:59:45.207Z,100453.38
2023-03-06T03:02:12.352Z,100460.34
2023-03-06T03:04:39.602Z,100457.50
2023-03-06T03:07:08.182Z,100452.47
2023-03-06T03:09:37.152Z,100452.53
2023-03-06T03:12:06.952Z,100445.63
2023-03-06T03:14:34.530Z,100451.78
2023-03-06T03:17:03.394Z,100454.63
2023-03-06T03:19:30.585Z,100448.38
2023-03-06T03:21:58.012Z,100438.06
2023-03-06T03:24:25.487Z,100449.41
2023-03-06T03:26:52.834Z,100438.31
2023-03-06T03:29:22.758Z,100440.97
2023-03-06T03:31:49.910Z,100448.28
2023-03-06T03:34:18.857Z,100450.22
2023-03-06T03:36:46.602Z,100446.69
2023-03-06T03:39:15.130Z,100440.41
2023-03-06T03:41:43.101Z,100453.31
2023-03-06T03:44:11.322Z,100449.22
2023-03-06T03:46:38.831Z,100450.44
2023-03-06T03:49:11.453Z,100447.16
2023-03-06T03:51:38.977Z,100451.47
2023-03-06T03:54:06.801Z,100448.81
2023-03-06T03:56:40.636Z,100445.63
2023-03-06T03:59:12.978Z,100443.88
2023-03-06T04:01:48.364Z,100442.16
2023-03-06T04:04:15.844Z,100441.16
2023-03-06T04:06:44.951Z,100430.50
2023-03-06T04:09:13.248Z,100429.53
2023-03-06T04:11:40.387Z,100429.63
2023-03-06T04:14:09.680Z,100419.19
2023-03-06T04:16:37.119Z,100418.34
2023-03-06T04:19:04.401Z,100418.34
2023-03-06T04:21:32.014Z,100409.38
2023-03-06T04:23:59.697Z,100409.78
2023-03-06T04:26:26.999Z,100411.75
2023-03-06T04:28:55.609Z,100408.31
2023-03-06T04:31:23.135Z,100405.09
2023-03-06T04:33:50.368Z,100415.59
2023-03-06T04:36:31.758Z,100406.69
2023-03-06T04:39:04.224Z,100408.56
2023-03-06T04:41:33.192Z,100406.00
2023-03-06T04:44:00.373Z,100408.75
2023-03-06T04:46:27.439Z,100413.09
2023-03-06T04:48:54.535Z,100428.69
2023-03-06T04:51:21.774Z,100434.97
2023-03-06T04:53:48.894Z,100439.13
2023-03-06T04:56:15.985Z,100444.94
2023-03-06T04:58:44.074Z,100434.47
2023-03-06T05:01:11.936Z,100428.84
2023-03-06T05:03:39.092Z,100425.09
2023-03-06T05:06:06.534Z,100423.09
2023-03-06T05:08:33.602Z,100424.50
2023-03-06T05:11:02.172Z,100419.44
2023-03-06T05:13:29.348Z,100423.03
2023-03-06T05:16:02.243Z,100420.16
2023-03-06T05:18:29.470Z,100416.47
2023-03-06T05:20:59.461Z,100409.41
2023-03-06T05:23:27.767Z,100411.69
2023-03-06T05:25:54.856Z,100415.66
2023-03-06T05:28:22.088Z,100405.09
2023-03-06T05:30:49.546Z,100405.59
2023-03-06T05:33:16.629Z,100405.25
2023-03-06T05:35:46.585Z,100405.53
2023-03-06T05:38:16.013Z,100401.69
2023-03-06T05:40:44.086Z,100404.25
2023-03-06T05:43:12.262Z,100413.66
2023-03-06T05:45:40.590Z,100411.13
2023-03-06T05:48:08.721Z,100410.59
2023-03-06T05:50:35.812Z,100411.59
2023-03-06T05:53:03.368Z,100402.66
2023-03-06T05:55:30.849Z,100412.25
2023-03-06T05:57:58.001Z,100413.66
2023-03-06T06:00:25.199Z,100414.50
2023-03-06T06:02:52.299Z,100412.03
2023-03-06T06:05:19.409Z,100414.59
2023-03-06T06:07:46.535Z,100417.69
2023-03-06T06:10:13.675Z,100413.22
2023-03-06T06:12:40.851Z,100423.63
2023-03-06T06:15:19.052Z,100430.53
2023-03-06T06:17:46.146Z,100419.31
2023-03-06T06:20:13.784Z,100409.50
2023-03-06T06:22:41.149Z,100417.13
2023-03-06T06:25:08.455Z,100420.47
2023-03-06T06:27:35.595Z,100413.09
2023-03-06T06:30:03.739Z,100419.88
2023-03-06T06:32:30.905Z,100417.47
2023-03-06T06:34:58.079Z,100422.47
2023-03-06T06:37:26.032Z,100424.94
2023-03-06T06:39:53.169Z,100418.19
2023-03-06T06:42:31.435Z,100425.06
2023-03-06T06:45:05.058Z,100421.06
2023-03-06T06:47:34.151Z,100426.38
2023-03-06T06:50:01.391Z,100430.84
2023-03-06T06:52:28.560Z,100430.22
2023-03-06T06:54:55.723Z,100428.38
2023-03-06T06:57:22.840Z,100417.03
2023-03-06T06:59:52.404Z,100430.69
2023-03-06T07:02:20.967Z,100427.88
2023-03-06T07:05:02.541Z,100432.34
2023-03-06T07:07:31.788Z,100429.66
2023-03-06T07:09:58.879Z,100429.63
2023-03-06T07:12:26.059Z,100432.91
2023-03-06T07:14:53.161Z,100442.66
2023-03-06T07:17:20.252Z,100428.22
2023-03-06T07:19:48.133Z,100435.25
2023-03-06T07:22:15.434Z,100431.69
2023-03-06T07:24:42.590Z,100425.63
2023-03-06T07:27:09.790Z,100423.00
2023-03-06T07:29:36.879Z,100425.38
2023-03-06T07:32:04.153Z,100422.69
2023-03-06T07:34:31.625Z,100420.59
2023-03-06T07:36:58.719Z,100420.22
2023-03-06T07:39:27.966Z,100426.88
2023-03-06T07:41:55.058Z,100420.78
2023-03-06T07:44:22.388Z,100423.81
2023-03-06T07:46:49.548Z,100418.25
2023-03-06T07:49:17.403Z,100416.47
2023-03-06T07:51:44.999Z,100429.59
2023-03-06T07:54:12.164Z,100429.22
2023-03-06T07:56:39.221Z,100426.97
2023-03-06T07:59:06.357Z,100422.91
2023-03-06T08:01:33.444Z,100422.03
2023-03-06T08:04:01.935Z,100423.66
2023-03-06T08:06:29.102Z,100414.16
2023-03-06T08:08:56.862Z,100414.41
2023-03-06T08:11:26.447Z,100417.53
2023-03-06T08:13:55.060Z,100411.88
2023-03-06T08:16:27.703Z,100415.25
2023-03-06T08:18:55.520Z,100416.03
2023-03-06T08:21:27.278Z,100416.78
2023-03-06T08:23:54.490Z,100414.75
2023-03-06T08:26:30.334Z,100410.41
2023-03-06T08:29:00.208Z,100408.94
2023-03-06T08:31:41.362Z,100400.66
2023-03-06T08:34:14.199Z,100411.63
2023-03-06T08:36:44.752Z,100411.03
2023-03-06T08:39:14.652Z,100407.94
2023-03-06T08:41:42.387Z,100408.38
2023-03-06T08:44:10.602Z,100417.41
2023-03-06T08:46:38.966Z,100405.78
2023-03-06T08:49:06.669Z,100413.50
2023-03-06T08:51:33.920Z,100409.88
2023-03-06T08:54:01.009Z,100408.91
2023-03-06T08:56:31.248Z,100410.94
2023-03-06T08:59:00.489Z,100406.22
2023-03-06T09:01:30.525Z,100401.38
2023-03-06T09:04:00.672Z,100407.50
2023-03-06T09:06:30.934Z,100403.81
2023-03-06T09:08:58.013Z,100404.59
2023-03-06T09:11:26.377Z,100396.19
2023-03-06T09:13:54.429Z,100393.81
2023-03-06T09:16:21.723Z,100399.66
2023-03-06T09:18:52.783Z,100403.94
2023-03-06T09:21:21.987Z,100397.41
2023-03-06T09:23:49.536Z,100397.91
2023-03-06T09:26:17.551Z,100390.78
2023-03-06T09:28:44.940Z,100402.53
2023-03-06T09:31:16.311Z,100398.41
2023-03-06T09:33:44.579Z,100398.19
2023-03-06T09:36:20.363Z,100395.97
2023-03-06T09:38:49.734Z,100394.63
2023-03-06T09:41:34.030Z,100398.41
2023-03-06T09:44:05.890Z,100391.81
2023-03-06T09:46:46.027Z,100391.94
2023-03-06T09:49:31.281Z,100389.59
2023-03-06T09:52:06.684Z,100385.91
2023-03-06T09:54:46.062Z,100379.19
2023-03-06T09:57:23.959Z,100379.66
2023-03-06T09:59:55.273Z,100377.63
2023-03-06T10:02:47.783Z,100379.97
2023-03-06T10:05:28.622Z,100384.13
2023-03-06T10:08:06.500Z,100379.84
2023-03-06T10:10:47.280Z,100377.91
2023-03-06T10:13:26.677Z,100373.91
2023-03-06T10:16:03.444Z,100369.50
2023-03-06T10:18:31.621Z,100379.88
2023-03-06T10:21:18.389Z,100369.50
2023-03-06T10:23:55.301Z,100370.09
2023-03-06T10:26:30.205Z,100366.56
2023-03-06T10:29:22.148Z,100363.72
2023-03-06T10:31:56.749Z,100367.09
2023-03-06T10:34:30.819Z,100370.34
2023-03-06T10:37:03.284Z,100360.75
2023-03-06T10:39:31.476Z,100359.16
2023-03-06T10:41:58.562Z,100363.63
2023-03-06T10:48:30.005Z,100353.97
2023-03-06T10:51:20.112Z,100352.47
2023-03-06T10:53:53.675Z,100342.66
2023-03-06T10:56:35.928Z,100341.22
2023-03-06T10:59:06.188Z,100336.81
2023-03-06T11:01:33.761Z,100351.78
2023-03-06T11:04:27.080Z,100351.47
2023-03-06T11:07:14.767Z,100342.56
2023-03-06T11:10:18.969Z,100337.34
2023-03-06T11:13:02.931Z,100343.13
2023-03-06T11:15:30.700Z,100336.38
2023-03-06T11:18:09.777Z,100336.56
2023-03-06T11:20:51.955Z,100326.75
2023-03-06T11:23:39.099Z,100320.59
2023-03-06T11:26:27.394Z,100318.25
2023-03-06T11:29:21.530Z,100311.22
2023-03-06T11:32:15.316Z,100314.03
2023-03-06T11:34:57.853Z,100307.03
2023-03-06T11:37:45.674Z,100304.84
2023-03-06T11:40:24.187Z,100300.09
2023-03-06T11:43:14.607Z,100295.72
2023-03-06T11:45:53.493Z,100292.63
2023-03-06T11:48:36.683Z,100292.22
2023-03-06T11:51:29.025Z,100290.50
2023-03-06T11:53:59.738Z,100288.38
2023-03-06T11:57:02.185Z,100291.94
2023-03-06T11:59:36.789Z,100281.81
2023-03-06T12:02:13.043Z,100284.59
2023-03-06T12:04:48.488Z,100278.81
2023-03-06T12:07:25.530Z,100275.09
2023-03-06T12:10:18.554Z,100270.66
2023-03-06T12:13:10.329Z,100259.00
2023-03-06T12:15:58.797Z,100265.19
2023-03-06T12:18:47.946Z,100259.25
2023-03-06T12:21:31.114Z,100252.81
2023-03-06T12:24:26.981Z,100240.28
2023-03-06T12:27:17.652Z,100234.66
2023-03-06T12:30:11.065Z,100226.69
2023-03-06T12:33:16.545Z,100219.78
2023-03-06T12:35:49.687Z,100212.22
2023-03-06T12:38:30.356Z,100217.75
2023-03-06T12:41:12.847Z,100209.63
2023-03-06T12:44:12.182Z,100203.22
2023-03-06T12:46:46.976Z,100201.88
2023-03-06T12:49:31.071Z,100202.09
2023-03-06T12:52:00.583Z,100207.41
2023-03-06T12:54:31.024Z,100203.16
2023-03-06T12:57:00.320Z,100196.50
2023-03-06T12:59:48.377Z,100201.66
2023-03-06T13:02:33.991Z,100208.47
2023-03-06T13:05:53.583Z,100200.66
2023-03-06T13:08:35.564Z,100202.41
2023-03-06T13:11:25.910Z,100198.13
2023-03-06T13:13:53.121Z,100194.72
2023-03-06T13:16:30.200Z,100195.03
2023-03-06T13:19:26.673Z,100187.97
2023-03-06T13:21:53.678Z,100182.75
2023-03-06T13:24:22.309Z,100181.69
2023-03-06T13:26:55.080Z,100176.66
2023-03-06T13:29:37.202Z,100176.28
2023-03-06T13:32:04.281Z,100174.22
2023-03-06T13:34:31.310Z,100170.44
2023-03-06T13:37:13.352Z,100172.72
2023-03-06T13:39:52.402Z,100159.56
2023-03-06T13:42:36.653Z,100162.03
2023-03-06T13:45:14.056Z,100157.44
2023-03-06T13:48:33.682Z,100145.13
2023-03-06T13:50:44.803Z,100152.34
2023-03-06T13:53:49.400Z,100151.13
2023-03-06T13:56:58.478Z,100146.59
2023-03-06T14:00:09.182Z,100152.91
2023-03-06T14:02:41.511Z,100148.25
2023-03-06T14:05:14.746Z,100147.22
2023-03-06T14:07:44.048Z,100147.22
2023-03-06T14:10:14.296Z,100143.31
2023-03-06T14:12:50.180Z,100138.94
2023-03-06T14:15:21.492Z,100137.19
2023-03-06T14:17:57.724Z,100135.75
2023-03-06T14:20:45.021Z,100133.31
2023-03-06T14:23:23.597Z,100129.13
2023-03-06T14:29:21.322Z,100118.00
2023-03-06T14:31:59.638Z,100125.94
2023-03-06T14:34:38.364Z,100121.72
2023-03-06T14:37:18.118Z,100127.75
2023-03-06T14:39:45.556Z,100124.47
2023-03-06T14:42:26.098Z,100119.44
2023-03-06T14:45:17.030Z,100111.28
2023-03-06T14:47:50.303Z,100114.63
2023-03-06T14:50:18.265Z,100117.50
2023-03-06T14:52:46.375Z,100113.09
2023-03-06T14:55:19.244Z,100108.03
2023-03-06T14:57:56.596Z,100111.09
2023-03-06T15:00:29.895Z,100103.59
2023-03-06T15:02:57.791Z,100099.50
2023-03-06T15:05:28.810Z,100091.91
2023-03-06T15:08:01.880Z,100091.78
2023-03-06T15:10:34.442Z,100080.84
2023-03-06T15:13:22.067Z,100081.78
2023-03-06T15:16:22.932Z,100088.78
2023-03-06T15:18:59.560Z,100084.31
2023-03-06T15:21:28.588Z,100073.38
2023-03-06T15:23:57.287Z,100065.06
2023-03-06T15:26:31.124Z,100073.94
2023-03-06T15:29:10.829Z,100069.09
2023-03-06T15:31:45.755Z,100061.75
2023-03-06T15:34:12.891Z,100063.06
2023-03-06T15:36:49.436Z,100070.09
2023-03-06T15:39:32.354Z,100071.66
2023-03-06T15:42:23.593Z,100064.28
2023-03-06T15:44:53.996Z,100071.56
2023-03-06T15:47:22.880Z,100072.28
2023-03-06T15:49:52.484Z,100072.84
2023-03-06T15:52:21.428Z,100076.69
2023-03-06T15:54:48.891Z,100071.75
2023-03-06T15:57:25.967Z,100067.47
2023-03-06T15:59:54.098Z,100067.38
2023-03-06T16:02:23.498Z,100063.66
2023-03-06T16:04:51.305Z,100061.94
2023-03-06T16:07:18.817Z,100059.34
2023-03-06T16:09:45.970Z,100054.41
2023-03-06T16:12:18.241Z,100058.69
2023-03-06T16:14:47.276Z,100054.81
2023-03-06T16:17:15.573Z,100049.03
2023-03-06T16:19:43.597Z,100053.97
2023-03-06T16:22:10.907Z,100056.09
2023-03-06T16:24:38.075Z,100054.16
2023-03-06T16:27:06.820Z,100058.00
2023-03-06T16:29:35.091Z,100051.59
2023-03-06T16:32:02.536Z,100063.22
2023-03-06T16:34:29.986Z,100057.59
2023-03-06T16:36:57.124Z,100059.84
2023-03-06T16:39:24.524Z,100061.47
2023-03-06T16:41:52.359Z,100062.34
2023-03-06T16:44:20.495Z,100066.34
2023-03-06T16:46:49.642Z,100068.50
2023-03-06T16:49:22.401Z,100069.69
2023-03-06T16:51:50.064Z,100068.84
2023-03-06T16:54:17.241Z,100069.44
2023-03-06T16:56:44.860Z,100066.19
2023-03-06T16:59:12.226Z,100071.34
2023-03-06T17:01:42.600Z,100066.44
2023-03-06T17:04:10.299Z,100074.81
2023-03-06T17:06:37.942Z,100080.72
2023-03-06T17:09:05.337Z,100081.88
2023-03-06T17:11:32.453Z,100088.66
2023-03-06T17:13:59.571Z,100084.81
2023-03-06T17:16:26.658Z,100091.91
2023-03-06T17:18:54.808Z,100093.56
2023-03-06T17:21:21.998Z,100099.34
2023-03-06T17:23:50.774Z,100101.53
2023-03-06T17:26:19.278Z,100102.47
2023-03-06T17:32:18.927Z,100101.09
2023-03-06T17:34:46.388Z,100116.84
2023-03-06T17:37:13.724Z,100121.75
2023-03-06T17:39:41.291Z,100117.56
2023-03-06T17:42:09.033Z,100117.84
2023-03-06T17:44:38.730Z,100123.25
2023-03-06T17:47:06.304Z,100132.00
2023-03-06T17:49:33.700Z,100134.25
2023-03-06T17:52:02.872Z,100137.88
2023-03-06T17:54:30.377Z,100141.06
2023-03-06T17:57:01.108Z,100147.50
2023-03-06T17:59:28.677Z,100152.53
2023-03-06T18:02:00.068Z,100147.34
2023-03-06T18:04:27.507Z,100149.59
2023-03-06T18:06:55.017Z,100146.19
2023-03-06T18:09:22.434Z,100154.50
2023-03-06T18:11:49.797Z,100152.66
2023-03-06T18:14:17.197Z,100160.19
2023-03-06T18:16:44.608Z,100154.69
2023-03-06T18:19:12.067Z,100165.31
2023-03-06T18:21:39.878Z,100164.97
2023-03-06T18:24:07.760Z,100160.66
2023-03-06T18:26:35.327Z,100163.63
2023-03-06T18:29:04.591Z,100165.22
2023-03-06T18:31:34.925Z,100161.38
2023-03-06T18:34:05.122Z,100162.34
2023-03-06T18:36:33.449Z,100163.50
2023-03-06T18:39:03.830Z,100167.75
2023-03-06T18:41:32.188Z,100161.31
2023-03-06T18:44:00.870Z,100154.41
2023-03-06T18:46:36.733Z,100165.53
2023-03-06T18:49:05.221Z,100164.88
2023-03-06T18:51:32.997Z,100161.53
2023-03-06T18:54:02.134Z,100164.06
2023-03-06T18:56:30.109Z,100162.66
2023-03-06T18:59:04.739Z,100165.75
2023-03-06T19:01:32.680Z,100165.44
2023-03-06T19:04:02.115Z,100167.59
2023-03-06T19:06:29.938Z,100173.28
2023-03-06T19:08:58.839Z,100167.56
2023-03-06T19:11:27.156Z,100178.94
2023-03-06T19:13:54.912Z,100178.13
2023-03-06T19:16:25.228Z,100173.53
2023-03-06T19:18:55.228Z,100169.84
2023-03-06T19:21:24.606Z,100169.25
2023-03-06T19:23:52.324Z,100171.44
2023-03-06T19:26:19.872Z,100176.06
2023-03-06T19:28:48.152Z,100177.28
2023-03-06T19:31:19.579Z,100171.91
2023-03-06T19:33:49.446Z,100183.91
2023-03-06T19:36:19.568Z,100179.13
2023-03-06T19:38:52.583Z,100168.97
2023-03-06T19:41:19.897Z,100173.13
2023-03-06T19:43:52.255Z,100166.16
2023-03-06T19:46:21.337Z,100165.78
2023-03-06T19:48:49.022Z,100166.59
2023-03-06T19:51:16.348Z,100171.03
2023-03-06T19:53:43.663Z,100156.06
2023-03-06T19:56:18.196Z,100169.72
2023-03-06T19:58:45.536Z,100167.91
2023-03-06T20:01:15.646Z,100172.06
2023-03-06T20:03:43.814Z,100171.97
2023-03-06T20:06:17.413Z,100172.91
2023-03-06T20:08:45.905Z,100171.78
2023-03-06T20:11:18.448Z,100174.03
2023-03-06T20:13:47.833Z,100170.00
2023-03-06T20:16:16.763Z,100178.63
2023-03-06T20:18:45.470Z,100167.78
2023-03-06T20:21:13.696Z,100170.72
2023-03-06T20:23:41.774Z,100176.16
2023-03-06T20:26:12.448Z,100174.75
2023-03-06T20:28:41.526Z,100166.91
2023-03-06T20:31:17.538Z,100172.47
2023-03-06T20:33:46.661Z,100165.59
2023-03-06T20:36:20.094Z,100172.72
2023-03-06T20:38:47.963Z,100169.72
2023-03-06T20:41:17.273Z,100175.22
2023-03-06T20:43:45.008Z,100173.06
2023-03-06T20:46:13.204Z,100175.09
2023-03-06T20:48:41.638Z,100176.97
2023-03-06T20:51:31.520Z,100173.22
2023-03-06T20:54:01.257Z,100184.63
2023-03-06T20:56:31.408Z,100186.28
2023-03-06T20:58:59.149Z,100180.84
2023-03-06T21:01:34.825Z,100183.28
2023-03-06T21:04:04.465Z,100183.53
2023-03-06T21:06:32.802Z,100177.94
2023-03-06T21:09:01.150Z,100182.63
2023-03-06T21:11:28.881Z,100182.88
2023-03-06T21:13:56.916Z,100186.44
2023-03-06T21:16:26.147Z,100184.97
2023-03-06T21:18:57.477Z,100192.38
2023-03-06T21:21:27.919Z,100193.88
2023-03-06T21:23:57.580Z,100195.84
2023-03-06T21:26:28.025Z,100190.91
2023-03-06T21:28:58.976Z,100194.63
2023-03-06T21:31:28.362Z,100192.50
2023-03-06T21:33:56.544Z,100198.75
2023-03-06T21:36:24.421Z,100191.19
2023-03-06T21:38:53.101Z,100194.41
2023-03-06T21:41:26.146Z,100198.59
2023-03-06T21:43:59.030Z,100197.94
2023-03-06T21:46:27.688Z,100199.16
2023-03-06T21:48:55.106Z,100196.94
2023-03-06T21:51:24.135Z,100204.56
2023-03-06T21:53:52.970Z,100209.31
2023-03-06T21:56:22.717Z,100210.09
2023-03-06T21:58:50.026Z,100218.53
2023-03-06T22:01:19.913Z,100205.97
2023-03-06T22:03:47.557Z,100207.50
2023-03-06T22:06:20.957Z,100208.72
2023-03-06T22:08:48.534Z,100206.91
2023-03-06T22:11:18.581Z,100207.88
2023-03-06T22:13:46.261Z,100202.38
2023-03-06T22:16:14.541Z,100212.56
2023-03-06T22:18:46.640Z,100199.00
2023-03-06T22:21:16.075Z,100202.16
2023-03-06T22:23:43.799Z,100195.88
2023-03-06T22:26:13.724Z,100197.06
2023-03-06T22:28:41.847Z,100189.88
2023-03-06T22:31:15.238Z,100192.19
2023-03-06T22:33:43.119Z,100195.50
2023-03-06T22:36:13.444Z,100195.97
2023-03-06T22:38:43.076Z,100192.56
2023-03-06T22:41:12.007Z,100200.84
2023-03-06T22:43:39.438Z,100197.13
2023-03-06T22:46:13.386Z,100207.50
2023-03-06T22:48:41.193Z,100206.19
2023-03-06T22:51:11.578Z,100205.25
2023-03-06T22:53:39.562Z,100206.16
2023-03-06T22:56:09.791Z,100199.56
2023-03-06T22:58:37.821Z,100202.81
2023-03-06T23:01:09.865Z,100198.16
2023-03-06T23:03:39.736Z,100205.00
2023-03-06T23:06:22.406Z,100209.63
2023-03-06T23:08:52.830Z,100214.06
2023-03-06T23:11:20.911Z,100211.91
2023-03-06T23:14:06.740Z,100210.16
2023-03-06T23:16:52.679Z,100216.59
2023-03-06T23:19:38.629Z,100220.38
2023-03-06T23:22:24.450Z,100217.03
2023-03-06T23:25:10.469Z,100220.56
2023-03-06T23:27:38.028Z,100214.69
2023-03-06T23:30:06.470Z,100216.50
2023-03-06T23:32:34.086Z,100225.25
2023-03-06T23:35:01.533Z,100224.81
2023-03-06T23:37:28.868Z,100220.63
2023-03-06T23:39:56.377Z,100225.72
2023-03-06T23:42:23.784Z,100229.78
2023-03-06T23:44:52.185Z,100236.72
2023-03-06T23:47:20.187Z,100238.78
2023-03-06T23:49:47.508Z,100237.25
2023-03-06T23:52:14.860Z,100235.59
2023-03-06T23:54:42.230Z,100236.56
2023-03-06T23:57:09.719Z,100241.41
2023-03-06T23:59:37.221Z,100227.78
